Elabuga, Russia
Current Conditions -  °F | °C
As of 6:00 PM on Monday 24 Nov 2014 (Local Time) from UWKE Reporting Station
Clear Clear  
Wind Chill: -11°   Ceiling: Unl
Heat Index:   Visibility: 6mi
Dew Point: -6°   Wind: 9mph
Humidity: 66%   Direction: 200°SSW
Pressure: 30.74"   Gusts: NA
Location:  55.77°N, 52.07°E
Report Text: UWKE 241500Z 20004MPS CAVOK M16/M21 Q1041 NOSIG RMK QFE764/101821090070
Loading
Personal Weather Stations






























Interactive Weather Map New forecast layout! Learn more

10-Day Weather Forecast

Advertisements
Track Severe Weather on mobile